Time;durP1;ratioP1;P1;durP2;ratioP2;P2;SDS_P1;SDS_P2;PMS_P1;PMS_P2;Temp;Humidity;BMP_temperature;BMP_pressure;BME280_temperature;BME280_humidity;BME280_pressure;Samples;Min_cycle;Max_cycle;Signal;HPM_P1;HPM_P2
2022/03/20 00:00:26;;;;;;;;;4.33;4.00;;;;;13.53;31.28;102142.00;2112944;27;47273;-60
2022/03/20 00:01:27;;;;;;;;;3.00;3.00;;;;;13.53;31.28;102134.88;2095378;28;47570;-59
2022/03/20 00:02:30;;;;;;;;;5.00;5.00;;;;;13.53;31.16;102132.22;2095210;28;47576;-59
2022/03/20 00:03:32;;;;;;;;;6.00;5.80;;;;;13.53;30.79;102136.66;2086157;28;47508;-61
2022/03/20 00:04:32;;;;;;;;;5.00;5.00;;;;;13.50;30.92;102131.38;2086306;28;47939;-62
2022/03/20 00:05:38;;;;;;;;;6.25;5.00;;;;;13.49;30.81;102134.94;2104421;28;47779;-60
2022/03/20 00:06:39;;;;;;;;;5.20;5.00;;;;;13.47;30.92;102126.09;2110613;27;47758;-60
2022/03/20 00:07:39;;;;;;;;;5.33;5.33;;;;;13.45;30.83;102126.06;2112880;27;48011;-61
2022/03/20 00:08:40;;;;;;;;;4.67;4.67;;;;;13.44;31.10;102126.97;2112791;27;47932;-61
2022/03/20 00:09:40;;;;;;;;;5.00;5.00;;;;;13.42;31.02;102127.91;2103598;28;48528;-59
2022/03/20 00:10:46;;;;;;;;;6.50;6.50;;;;;13.41;30.79;102127.00;2103752;28;47879;-62
2022/03/20 00:11:47;;;;;;;;;4.75;4.75;;;;;13.38;30.87;102132.38;2104532;28;47929;-60
2022/03/20 00:12:47;;;;;;;;;4.50;4.50;;;;;13.36;31.17;102122.66;2107948;27;47242;-61
2022/03/20 00:13:48;;;;;;;;;5.00;5.00;;;;;13.33;30.89;102126.19;2108389;27;47964;-58
2022/03/20 00:14:48;;;;;;;;;3.33;3.33;;;;;13.32;30.83;102131.56;2111475;27;47541;-61
2022/03/20 00:15:51;;;;;;;;;5.67;5.67;;;;;13.30;30.79;102128.03;2112981;27;47811;-61
2022/03/20 00:16:51;;;;;;;;;7.20;5.00;;;;;13.29;30.89;102131.59;2112365;27;47726;-60
2022/03/20 00:17:51;;;;;;;;;4.67;4.67;;;;;13.27;30.77;102126.28;2112237;27;47574;-61
2022/03/20 00:18:52;;;;;;;;;5.25;5.25;;;;;13.24;30.70;102123.66;2112415;27;47904;-61
2022/03/20 00:19:52;;;;;;;;;2.00;2.00;;;;;13.25;30.98;102130.75;2103703;28;46256;-60
2022/03/20 00:20:58;;;;;;;;;6.00;5.33;;;;;13.25;30.96;102122.75;2103402;28;47498;-59
2022/03/20 00:21:58;;;;;;;;;3.75;3.50;;;;;13.23;30.99;102114.78;2112741;27;48546;-62
2022/03/20 00:23:00;;;;;;;;;4.33;4.00;;;;;13.23;30.92;102130.78;2112944;27;47948;-61
2022/03/20 00:24:01;;;;;;;;;5.00;3.75;;;;;13.22;31.17;102122.78;2112457;27;47952;-61
2022/03/20 00:25:02;;;;;;;;;4.67;3.00;;;;;13.22;31.17;102125.47;2112591;27;47422;-60
2022/03/20 00:26:02;;;;;;;;;4.75;4.00;;;;;13.20;31.09;102120.13;2102073;28;47163;-61
2022/03/20 00:27:03;;;;;;;;;4.00;4.00;;;;;13.20;31.43;102114.78;2103486;28;47626;-60
2022/03/20 00:28:05;;;;;;;;;5.00;5.00;;;;;13.20;31.05;102122.78;2112110;27;47854;-61
2022/03/20 00:29:06;;;;;;;;;4.50;3.00;;;;;13.19;31.12;102123.69;2112537;27;48095;-61
2022/03/20 00:30:07;;;;;;;;;3.75;3.75;;;;;13.21;31.13;102124.56;2113058;27;47633;-60
2022/03/20 00:31:07;;;;;;;;;4.33;4.33;;;;;13.22;31.08;102117.47;2102561;28;47456;-61
2022/03/20 00:32:09;;;;;;;;;5.67;5.67;;;;;13.22;31.11;102122.78;2103117;28;48082;-61
2022/03/20 00:33:10;;;;;;;;;5.00;5.00;;;;;13.22;31.07;102122.78;2113099;27;47294;-62
2022/03/20 00:34:10;;;;;;;;;5.50;5.50;;;;;13.22;31.24;102125.47;2103577;28;47364;-62
2022/03/20 00:35:11;;;;;;;;;7.75;7.75;;;;;13.22;31.05;102121.00;2103523;28;47340;-60
2022/03/20 00:36:11;;;;;;;;;5.00;5.00;;;;;13.22;31.10;102121.00;2112719;27;47308;-61
2022/03/20 00:37:11;;;;;;;;;6.00;6.00;;;;;13.22;31.07;102123.69;2112402;27;47712;-61
2022/03/20 00:38:12;;;;;;;;;6.00;6.00;;;;;13.19;31.01;102123.69;2113011;27;48287;-61
2022/03/20 00:39:12;;;;;;;;;5.67;5.67;;;;;13.18;31.35;102118.34;2112471;27;47991;-59
2022/03/20 00:40:13;;;;;;;;;4.25;4.25;;;;;13.14;31.34;102120.16;2112793;27;47115;-60
2022/03/20 00:41:13;;;;;;;;;6.25;5.25;;;;;13.15;31.21;102115.72;2112836;27;47981;-61
2022/03/20 00:42:14;;;;;;;;;4.33;4.33;;;;;13.15;31.27;102121.03;2112723;27;47436;-62
2022/03/20 00:43:14;;;;;;;;;3.67;3.67;;;;;13.13;31.16;102121.06;2113113;27;47250;-59
2022/03/20 00:44:15;;;;;;;;;4.67;4.67;;;;;13.13;31.25;102117.50;2112628;27;47515;-62
2022/03/20 00:45:15;;;;;;;;;3.67;3.67;;;;;13.12;31.47;102110.41;2112939;27;48202;-58
2022/03/20 00:46:15;;;;;;;;;3.00;3.00;;;;;13.11;31.35;102114.88;2111400;27;47364;-61
2022/03/20 00:47:16;;;;;;;;;4.50;3.75;;;;;13.12;31.37;102118.41;2111150;27;47934;-59
2022/03/20 00:48:16;;;;;;;;;5.00;4.33;;;;;13.11;31.42;102114.88;2103559;28;47857;-61
2022/03/20 00:49:17;;;;;;;;;4.00;4.00;;;;;13.10;31.33;102110.44;2103594;28;47138;-60
2022/03/20 00:50:17;;;;;;;;;4.67;4.67;;;;;13.09;31.24;102114.00;2112713;27;47332;-63
2022/03/20 00:51:18;;;;;;;;;1.00;1.00;;;;;13.08;31.39;102109.53;2112702;27;47673;-61
2022/03/20 00:52:18;;;;;;;;;4.00;4.00;;;;;13.07;31.44;102109.56;2112421;27;47527;-61
2022/03/20 00:53:19;;;;;;;;;4.67;4.00;;;;;13.06;31.44;102107.78;2112666;27;47390;-60
2022/03/20 00:54:19;;;;;;;;;4.00;3.00;;;;;13.05;31.55;102104.25;2112354;27;47194;-62
2022/03/20 00:55:20;;;;;;;;;5.75;5.00;;;;;13.04;31.61;102110.47;2112953;27;47383;-62
2022/03/20 00:56:21;;;;;;;;;3.00;3.00;;;;;13.04;31.77;102114.94;2112573;27;47240;-62
2022/03/20 00:57:21;;;;;;;;;4.00;4.00;;;;;13.04;31.73;102104.25;2112484;27;47578;-60
2022/03/20 00:58:22;;;;;;;;;5.00;5.00;;;;;13.03;31.39;102098.06;2112276;27;47747;-60
2022/03/20 00:59:22;;;;;;;;;5.00;5.00;;;;;13.02;31.30;102104.28;2103420;27;47552;-61
2022/03/20 01:00:22;;;;;;;;;4.00;4.00;;;;;13.00;31.65;102100.75;2104371;28;47775;-62
2022/03/20 01:01:23;;;;;;;;;4.33;3.67;;;;;13.00;31.54;102105.22;2104200;28;47543;-62
2022/03/20 01:02:23;;;;;;;;;4.00;4.00;;;;;12.98;31.64;102102.56;2104017;28;47767;-60
2022/03/20 01:03:24;;;;;;;;;4.00;4.00;;;;;12.94;31.84;102103.47;2095912;28;47631;-60
2022/03/20 01:04:25;;;;;;;;;2.33;2.33;;;;;12.93;31.71;102099.03;2095994;28;47289;-60
2022/03/20 01:05:25;;;;;;;;;5.00;4.50;;;;;12.91;31.65;102103.50;2113995;27;47988;-62
2022/03/20 01:06:26;;;;;;;;;4.00;4.00;;;;;12.88;31.68;102103.53;2113996;27;47509;-60
2022/03/20 01:07:26;;;;;;;;;2.33;2.33;;;;;12.85;31.73;102099.13;2104747;28;47799;-61
2022/03/20 01:08:27;;;;;;;;;3.50;3.50;;;;;12.81;31.85;102101.81;2105089;28;47664;-61
2022/03/20 01:09:31;;;;;;;;;3.67;3.67;;;;;12.78;32.00;102107.16;2114049;27;47640;-60
2022/03/20 01:10:31;;;;;;;;;6.00;4.00;;;;;12.74;31.81;102102.78;2113600;27;47721;-61
2022/03/20 01:11:33;;;;;;;;;7.00;3.67;;;;;12.70;31.95;102103.69;2114301;27;47615;-57
2022/03/20 01:12:34;;;;;;;;;3.50;3.00;;;;;12.67;32.11;102100.16;2113497;27;48147;-59
2022/03/20 01:13:35;;;;;;;;;5.75;4.00;;;;;12.67;32.22;102105.47;2114004;27;47901;-60
2022/03/20 01:14:36;;;;;;;;;2.25;2.25;;;;;12.65;32.11;102101.94;2114047;27;47549;-60
2022/03/20 01:15:37;;;;;;;;;3.50;3.50;;;;;12.65;31.97;102099.28;2114004;27;47593;-59
2022/03/20 01:16:37;;;;;;;;;3.33;3.33;;;;;12.65;32.20;102096.63;2113703;27;47533;-61
2022/03/20 01:17:38;;;;;;;;;3.67;3.67;;;;;12.64;32.21;102096.63;2113516;27;47641;-61
2022/03/20 01:18:39;;;;;;;;;4.00;4.00;;;;;12.63;32.25;102094.88;2103993;28;48315;-60
2022/03/20 01:19:39;;;;;;;;;4.00;3.33;;;;;12.61;32.28;102097.56;2104111;27;48141;-61
2022/03/20 01:20:40;;;;;;;;;3.00;3.00;;;;;12.60;32.08;102094.91;2113913;27;47559;-61
2022/03/20 01:21:41;;;;;;;;;3.00;3.00;;;;;12.57;32.40;102094.91;2114241;27;47524;-60
2022/03/20 01:22:43;;;;;;;;;4.00;4.00;;;;;12.55;32.18;102094.03;2113023;27;47481;-60
2022/03/20 01:23:43;;;;;;;;;4.00;4.00;;;;;12.53;32.36;102096.72;2109635;27;47489;-60
2022/03/20 01:24:44;;;;;;;;;3.33;3.33;;;;;12.52;32.63;102092.28;2113625;27;47818;-60
2022/03/20 01:25:44;;;;;;;;;4.00;4.00;;;;;12.52;32.34;102083.41;2113493;27;48312;-61
2022/03/20 01:26:45;;;;;;;;;4.00;4.00;;;;;12.51;32.48;102093.19;2114085;27;47580;-59
2022/03/20 01:27:45;;;;;;;;;3.67;3.67;;;;;12.50;32.63;102088.75;2113342;27;47190;-61
2022/03/20 01:28:47;;;;;;;;;4.75;4.00;;;;;12.52;32.58;102086.97;2104787;28;48169;-61
2022/03/20 01:29:48;;;;;;;;;4.75;4.75;;;;;12.53;32.63;102085.19;2104617;27;47705;-60
2022/03/20 01:30:49;;;;;;;;;4.67;4.67;;;;;12.52;32.49;102084.31;2113786;27;47965;-61
2022/03/20 01:31:49;;;;;;;;;3.00;3.00;;;;;12.53;32.36;102079.84;2113330;27;47706;-59
2022/03/20 01:32:50;;;;;;;;;3.00;3.00;;;;;12.53;32.52;102090.50;2103777;28;47735;-60
2022/03/20 01:33:50;;;;;;;;;3.00;3.00;;;;;12.52;32.67;102088.75;2104000;28;47891;-61
2022/03/20 01:34:51;;;;;;;;;2.00;2.00;;;;;12.51;32.60;102082.53;2095422;28;47435;-56
2022/03/20 01:35:52;;;;;;;;;4.00;4.00;;;;;12.51;32.60;102081.66;2095535;28;47738;-61
2022/03/20 01:36:53;;;;;;;;;3.50;3.50;;;;;12.51;32.62;102086.97;2113588;27;47261;-60
2022/03/20 01:37:53;;;;;;;;;3.75;3.75;;;;;12.48;32.65;102077.25;2113995;27;48041;-58
2022/03/20 01:38:55;;;;;;;;;3.00;3.00;;;;;12.46;32.59;102070.16;2113956;27;47824;-61
2022/03/20 01:39:55;;;;;;;;;4.00;4.00;;;;;12.44;32.58;102067.50;2113581;27;48048;-61
2022/03/20 01:40:56;;;;;;;;;2.00;2.00;;;;;12.44;32.51;102071.94;2113773;27;47258;-59
2022/03/20 01:41:57;;;;;;;;;4.00;4.00;;;;;12.44;32.78;102072.81;2113701;27;47915;-61
2022/03/20 01:42:58;;;;;;;;;3.00;3.00;;;;;12.42;32.75;102073.72;2114306;27;47669;-60
2022/03/20 01:44:00;;;;;;;;;4.00;4.00;;;;;12.41;32.75;102071.97;2113663;27;47870;-60
2022/03/20 01:45:11;;;;;;;;;4.00;2.00;;;;;12.40;32.64;102078.19;2113659;27;47583;-62
2022/03/20 01:46:11;;;;;;;;;4.00;4.00;;;;;12.39;32.82;102074.63;2104240;28;48280;-60
2022/03/20 01:47:12;;;;;;;;;4.00;4.00;;;;;12.37;32.83;102079.97;2104483;28;47224;-60
2022/03/20 01:48:12;;;;;;;;;4.00;4.00;;;;;12.33;32.80;102075.59;2113278;27;47588;-64
2022/03/20 01:49:13;;;;;;;;;3.33;3.33;;;;;12.32;32.61;102070.25;2113623;27;48393;-59
2022/03/20 01:50:14;;;;;;;;;3.00;3.00;;;;;12.29;32.67;102073.81;2113647;27;47849;-60
2022/03/20 01:51:15;;;;;;;;;4.25;4.25;;;;;12.28;32.82;102072.06;2113985;27;48195;-60
2022/03/20 01:52:24;;;;;;;;;4.00;4.00;;;;;12.27;32.65;102069.41;2113896;27;47925;-60
2022/03/20 01:53:26;;;;;;;;;4.00;4.00;;;;;12.26;32.86;102070.31;2113711;27;48092;-60
2022/03/20 01:54:26;;;;;;;;;3.75;3.75;;;;;12.23;32.69;102067.66;2113557;27;47773;-60
2022/03/20 01:55:28;;;;;;;;;1.67;1.67;;;;;12.21;33.02;102064.13;2095402;28;47945;-61
2022/03/20 01:56:32;;;;;;;;;2.50;2.50;;;;;12.19;32.84;102071.22;2095167;28;48020;-61
2022/03/20 01:57:36;;;;;;;;;4.00;4.00;;;;;12.16;32.95;102064.16;2070779;28;47934;-62
2022/03/20 01:58:36;;;;;;;;;4.00;4.00;;;;;12.16;33.22;102061.50;2065403;28;47287;-61
2022/03/20 01:59:37;;;;;;;;;3.00;3.00;;;;;12.15;33.13;102059.72;2085656;28;47213;-61
2022/03/20 02:00:37;;;;;;;;;2.00;2.00;;;;;12.15;33.16;102058.84;2095540;28;47793;-61
2022/03/20 02:01:38;;;;;;;;;4.00;4.00;;;;;12.15;33.22;102067.72;2095671;28;47508;-61
2022/03/20 02:02:39;;;;;;;;;3.00;3.00;;;;;12.15;33.16;102058.84;2087451;28;47777;-58
2022/03/20 02:03:40;;;;;;;;;2.00;2.00;;;;;12.15;33.21;102054.41;2087306;28;47951;-61
2022/03/20 02:04:41;;;;;;;;;3.75;3.75;;;;;12.15;33.17;102058.84;2095666;28;47331;-62
2022/03/20 02:05:42;;;;;;;;;3.00;3.00;;;;;12.14;32.92;102054.41;2096012;28;47645;-60
2022/03/20 02:06:44;;;;;;;;;3.75;3.75;;;;;12.13;33.34;102057.97;2095422;28;47864;-59
2022/03/20 02:07:45;;;;;;;;;3.50;3.50;;;;;12.11;33.15;102055.31;2095548;28;47804;-60
2022/03/20 02:08:46;;;;;;;;;3.00;3.00;;;;;12.10;33.18;102052.69;2095517;28;48183;-61
2022/03/20 02:09:46;;;;;;;;;3.00;3.00;;;;;12.09;33.22;102051.78;2095826;28;47415;-60
2022/03/20 02:10:47;;;;;;;;;3.33;3.33;;;;;12.06;33.74;102052.69;2095514;28;47953;-61
2022/03/20 02:11:48;;;;;;;;;3.00;3.00;;;;;12.03;33.35;102058.03;2094401;28;47855;-60
2022/03/20 02:12:48;;;;;;;;;2.00;2.00;;;;;12.02;33.37;102050.06;2093749;28;47731;-59
2022/03/20 02:13:50;;;;;;;;;3.00;3.00;;;;;12.00;33.66;102043.88;2070192;28;47593;-60
2022/03/20 02:14:51;;;;;;;;;3.00;3.00;;;;;12.00;33.58;102044.75;2069445;28;48112;-60
2022/03/20 02:15:51;;;;;;;;;3.50;2.50;;;;;12.00;33.66;102046.53;2087070;28;47583;-60
2022/03/20 02:16:53;;;;;;;;;3.00;2.00;;;;;12.00;33.40;102050.06;2086925;28;47376;-60
2022/03/20 02:17:56;;;;;;;;;3.75;3.75;;;;;11.97;33.66;102047.44;2087179;28;48124;-60
2022/03/20 02:18:57;;;;;;;;;4.00;3.75;;;;;11.97;33.49;102054.53;2078771;28;47435;-60
2022/03/20 02:19:59;;;;;;;;;5.00;4.75;;;;;11.96;33.82;102045.66;2078759;28;48099;-60
2022/03/20 02:21:02;;;;;;;;;4.00;4.00;;;;;11.95;33.81;102046.56;2079074;28;47588;-60
2022/03/20 02:22:04;;;;;;;;;5.00;4.00;;;;;11.95;33.74;102040.38;2062454;28;47327;-60
2022/03/20 02:23:04;;;;;;;;;4.25;4.25;;;;;11.94;33.88;102044.81;2070345;28;47423;-60
2022/03/20 02:24:51;;;;;;;;;3.00;3.00;;;;;11.93;33.88;102035.03;2086988;28;47648;-62
2022/03/20 02:25:51;;;;;;;;;3.00;3.00;;;;;11.92;33.92;102040.34;2054028;28;47595;-59
2022/03/20 02:27:23;;;;;;;;;3.00;3.00;;;;;11.90;34.02;102036.81;2053174;28;47577;-61
2022/03/20 02:28:24;;;;;;;;;4.75;3.75;;;;;11.88;33.85;102031.53;2022570;29;47559;-62
2022/03/20 02:29:24;;;;;;;;;3.00;3.00;;;;;11.87;34.09;102037.75;2027682;29;47641;-62
2022/03/20 02:30:30;;;;;;;;;5.67;5.00;;;;;11.85;33.96;102034.22;2030322;29;47714;-61
2022/03/20 02:31:30;;;;;;;;;3.25;3.25;;;;;11.85;34.02;102031.56;2030052;29;48161;-60
2022/03/20 02:32:32;;;;;;;;;5.00;5.00;;;;;11.85;34.29;102034.22;2030310;29;47444;-61
2022/03/20 02:33:32;;;;;;;;;4.00;4.00;;;;;11.85;34.06;102028.88;2040093;28;47695;-60
2022/03/20 02:34:33;;;;;;;;;3.00;3.00;;;;;11.85;34.23;102036.88;2046371;28;47883;-60
2022/03/20 02:35:34;;;;;;;;;4.00;4.00;;;;;11.86;34.12;102032.44;2046402;28;47604;-62
2022/03/20 02:36:36;;;;;;;;;5.00;3.00;;;;;11.85;34.11;102028.00;2054128;28;48054;-60
2022/03/20 02:37:40;;;;;;;;;3.00;3.00;;;;;11.84;34.42;102027.13;2053977;28;47846;-62
2022/03/20 02:38:41;;;;;;;;;3.00;3.00;;;;;11.84;34.27;102028.91;2054534;28;47913;-61
2022/03/20 02:39:43;;;;;;;;;3.33;3.33;;;;;11.82;34.17;102023.59;2054543;28;47438;-61
2022/03/20 02:40:43;;;;;;;;;2.50;2.50;;;;;11.81;34.39;102021.81;2054180;28;47923;-62
2022/03/20 02:41:46;;;;;;;;;5.33;4.67;;;;;11.79;34.19;102024.47;2054285;28;47579;-59
2022/03/20 02:42:48;;;;;;;;;4.00;4.00;;;;;11.77;34.33;102020.91;2046248;28;45744;-60
2022/03/20 02:43:52;;;;;;;;;5.25;5.25;;;;;11.75;34.51;102020.03;2046080;28;47930;-61
2022/03/20 02:45:08;;;;;;;;;6.00;6.00;;;;;11.73;34.41;102024.50;2054303;28;47519;-60
2022/03/20 02:46:10;;;;;;;;;5.25;5.00;;;;;11.73;34.41;102028.94;2054070;28;47678;-61
2022/03/20 02:47:10;;;;;;;;;7.50;5.75;;;;;11.69;34.42;102012.13;2054101;28;48058;-61
2022/03/20 02:48:11;;;;;;;;;6.67;5.00;;;;;11.67;34.34;102015.66;2054361;28;46555;-62
2022/03/20 02:49:13;;;;;;;;;9.67;6.67;;;;;11.64;34.48;102016.56;2054142;28;48344;-62
2022/03/20 02:50:32;;;;;;;;;6.75;5.25;;;;;11.62;34.84;102017.47;2053922;28;47566;-60
2022/03/20 02:51:33;;;;;;;;;4.75;4.00;;;;;11.58;34.73;102016.59;2054632;28;48057;-60
2022/03/20 02:52:54;;;;;;;;;6.67;6.00;;;;;11.55;34.98;102018.38;2054305;28;48046;-60
2022/03/20 02:53:55;;;;;;;;;5.25;5.25;;;;;11.52;35.15;102019.28;2054600;28;47559;-59
2022/03/20 02:55:02;;;;;;;;;4.50;4.50;;;;;11.52;34.93;102023.72;2054367;28;47241;-58
2022/03/20 02:56:04;;;;;;;;;7.20;5.00;;;;;11.50;35.14;102013.97;2054336;28;47528;-59
2022/03/20 02:57:08;;;;;;;;;7.40;4.80;;;;;11.48;35.08;102021.06;2045885;28;48303;-60
2022/03/20 02:58:14;;;;;;;;;4.00;4.00;;;;;11.48;35.08;102020.19;2046439;28;47737;-60
2022/03/20 02:59:15;;;;;;;;;8.00;6.40;;;;;11.47;35.19;102018.41;2041784;28;48113;-61
2022/03/20 03:00:18;;;;;;;;;5.00;3.50;;;;;11.45;35.22;102021.09;2044843;28;47593;-61
2022/03/20 03:01:19;;;;;;;;;4.25;3.75;;;;;11.44;35.47;102014.00;2054241;28;47875;-60
2022/03/20 03:02:20;;;;;;;;;3.00;3.00;;;;;11.43;35.13;102019.31;2054004;28;47485;-58
2022/03/20 03:03:20;;;;;;;;;3.67;3.67;;;;;11.42;35.37;102017.53;2064251;28;47732;-59
2022/03/20 03:04:22;;;;;;;;;3.00;3.00;;;;;11.42;35.44;102022.84;2077839;28;45144;-61
2022/03/20 03:05:28;;;;;;;;;5.00;3.50;;;;;11.41;35.31;102013.13;2078587;28;47309;-61
2022/03/20 03:06:28;;;;;;;;;3.00;3.00;;;;;11.39;35.43;102013.13;2104155;27;48180;-60
2022/03/20 03:07:31;;;;;;;;;5.25;5.25;;;;;11.39;35.73;102009.59;2112969;27;47350;-59
2022/03/20 03:11:09;;;;;;;;;3.25;3.25;;;;;11.33;35.60;102002.53;2113200;27;47490;-61
2022/03/20 03:12:09;;;;;;;;;4.00;4.00;;;;;11.32;35.73;101997.22;2112936;27;47475;-59
2022/03/20 03:13:11;;;;;;;;;3.00;3.00;;;;;11.32;35.85;102000.78;2112490;27;48037;-60
2022/03/20 03:15:31;;;;;;;;;4.25;4.25;;;;;11.30;35.37;101999.88;2104493;28;47905;-58
2022/03/20 03:16:31;;;;;;;;;5.00;5.00;;;;;11.30;35.79;101999.88;2110234;27;47192;-60
2022/03/20 03:17:32;;;;;;;;;6.00;4.33;;;;;11.30;35.71;102012.28;2103846;28;47950;-61
2022/03/20 03:18:34;;;;;;;;;3.00;3.00;;;;;11.29;36.04;101999.88;2103749;28;48002;-61
2022/03/20 03:19:34;;;;;;;;;3.00;3.00;;;;;11.28;35.80;101988.38;2112916;27;47629;-61
2022/03/20 03:20:35;;;;;;;;;6.00;4.00;;;;;11.25;36.09;101996.34;2112718;27;47857;-59
2022/03/20 03:21:36;;;;;;;;;4.00;4.00;;;;;11.23;36.16;101997.25;2112978;27;47800;-60
2022/03/20 03:22:36;;;;;;;;;3.00;3.00;;;;;11.21;36.12;101997.28;2112796;27;47452;-60
2022/03/20 03:23:37;;;;;;;;;4.00;4.00;;;;;11.19;36.22;101994.63;2112913;27;47584;-61
2022/03/20 03:24:37;;;;;;;;;4.00;4.00;;;;;11.19;36.12;101989.31;2113308;27;45584;-59
2022/03/20 03:25:38;;;;;;;;;4.00;4.00;;;;;11.20;36.19;101984.88;2112724;27;47937;-59
2022/03/20 03:26:39;;;;;;;;;3.33;2.00;;;;;11.20;36.42;101999.03;2113079;27;47324;-60
2022/03/20 03:27:40;;;;;;;;;4.00;4.00;;;;;11.20;36.28;101995.50;2112937;27;47542;-60
2022/03/20 03:28:40;;;;;;;;;3.00;3.00;;;;;11.20;36.42;101992.84;2113002;27;48114;-60
2022/03/20 03:29:40;;;;;;;;;5.00;5.00;;;;;11.19;36.30;101991.97;2112526;27;47817;-61
2022/03/20 03:30:44;;;;;;;;;4.33;4.33;;;;;11.20;36.07;101991.06;2109866;27;47365;-61
2022/03/20 03:31:44;;;;;;;;;6.75;4.75;;;;;11.19;36.54;101989.31;2104364;28;47775;-61
2022/03/20 03:32:45;;;;;;;;;5.00;4.67;;;;;11.19;36.30;101993.75;2111465;27;47499;-61
2022/03/20 03:36:25;;;;;;;;;5.00;5.00;;;;;11.16;36.53;101983.97;2112715;27;47979;-58
2022/03/20 03:37:26;;;;;;;;;5.60;5.60;;;;;11.15;36.30;101984.00;2113367;27;47783;-60
2022/03/20 03:38:34;;;;;;;;;5.00;5.00;;;;;11.13;36.67;101991.09;2112832;27;47593;-60
2022/03/20 03:39:35;;;;;;;;;3.75;3.75;;;;;11.13;36.59;101996.41;2113088;27;48059;-59
2022/03/20 03:40:37;;;;;;;;;4.67;4.00;;;;;11.13;36.65;101991.09;2112708;27;47615;-62
2022/03/20 03:41:37;;;;;;;;;7.00;7.00;;;;;11.12;36.75;101987.56;2112977;27;47939;-61
2022/03/20 03:42:38;;;;;;;;;4.75;4.75;;;;;11.12;36.65;101989.31;2113222;27;47870;-60
2022/03/20 03:43:38;;;;;;;;;7.33;4.00;;;;;11.11;36.73;101990.22;2113208;27;47773;-60
2022/03/20 03:44:39;;;;;;;;;5.00;5.00;;;;;11.10;36.76;101991.13;2112668;27;47659;-61
2022/03/20 03:45:40;;;;;;;;;6.00;6.00;;;;;11.09;36.92;101995.53;2113166;27;47443;-57
2022/03/20 03:46:41;;;;;;;;;5.50;4.50;;;;;11.07;36.94;101994.66;2109888;27;47749;-58
2022/03/20 03:47:41;;;;;;;;;6.33;6.33;;;;;11.06;36.70;101995.56;2112957;27;47941;-60
2022/03/20 03:48:42;;;;;;;;;4.00;4.00;;;;;11.05;36.97;101993.78;2112891;27;47406;-59
2022/03/20 03:49:42;;;;;;;;;5.25;5.25;;;;;11.03;37.00;101992.00;2103776;28;47319;-61
2022/03/20 03:50:44;;;;;;;;;6.75;5.50;;;;;11.01;36.68;101981.38;2103826;28;47886;-61
2022/03/20 03:51:45;;;;;;;;;5.40;5.40;;;;;11.01;36.71;101988.47;2086289;28;47505;-61
2022/03/20 03:52:46;;;;;;;;;5.00;5.00;;;;;11.00;37.06;101992.03;2086584;28;48020;-61
2022/03/20 03:53:48;;;;;;;;;4.00;4.00;;;;;11.00;37.00;101989.38;2086722;28;48044;-61
2022/03/20 03:54:48;;;;;;;;;4.50;4.50;;;;;10.98;37.09;101989.38;2086792;28;47625;-59
2022/03/20 03:55:48;;;;;;;;;7.33;7.33;;;;;10.96;37.02;101987.63;2086638;28;47630;-60
2022/03/20 03:56:49;;;;;;;;;6.67;5.00;;;;;10.89;37.32;101995.59;2086103;28;47832;-59
2022/03/20 03:57:51;;;;;;;;;6.75;6.75;;;;;10.87;37.26;101997.38;2086319;28;47727;-61
2022/03/20 03:58:51;;;;;;;;;4.00;4.00;;;;;10.86;37.21;101992.06;2086676;28;47729;-61
2022/03/20 03:59:52;;;;;;;;;6.00;6.00;;;;;10.83;37.63;101987.66;2086470;28;47309;-61
2022/03/20 04:00:52;;;;;;;;;3.67;3.67;;;;;10.83;37.52;101992.06;2086894;28;47394;-60
2022/03/20 04:01:54;;;;;;;;;7.00;7.00;;;;;10.81;37.61;101994.75;2086386;28;47407;-60
2022/03/20 04:02:55;;;;;;;;;4.20;4.20;;;;;10.80;37.47;101987.66;2086740;28;47944;-61
2022/03/20 04:03:56;;;;;;;;;6.33;5.00;;;;;10.80;37.42;101989.44;2086714;28;47553;-60
2022/03/20 04:04:56;;;;;;;;;6.75;6.25;;;;;10.80;37.34;101986.78;2086624;28;47876;-60
2022/03/20 04:06:04;;;;;;;;;5.67;4.67;;;;;10.79;37.52;101979.69;2087011;28;47445;-61
2022/03/20 04:07:04;;;;;;;;;7.00;7.00;;;;;10.77;37.40;101984.09;2086657;28;47503;-61
2022/03/20 04:08:09;;;;;;;;;8.67;7.00;;;;;10.75;37.65;101985.88;2085649;28;46965;-59
2022/03/20 04:09:09;;;;;;;;;7.25;6.25;;;;;10.73;37.44;101985.00;2086124;28;48180;-61
2022/03/20 04:10:09;;;;;;;;;8.00;7.00;;;;;10.71;37.78;101977.06;2086469;28;47601;-61
2022/03/20 04:11:10;;;;;;;;;4.67;4.67;;;;;10.70;38.18;101977.94;2086417;28;48077;-60
2022/03/20 04:12:15;;;;;;;;;5.00;5.00;;;;;10.68;37.86;101971.75;2086891;28;47390;-60
2022/03/20 04:13:15;;;;;;;;;5.00;4.50;;;;;10.70;37.84;101971.75;2086489;28;47910;-58
2022/03/20 04:14:15;;;;;;;;;8.50;5.75;;;;;10.69;38.00;101972.66;2086601;28;47911;-60
2022/03/20 04:15:21;;;;;;;;;6.00;6.00;;;;;10.70;37.89;101971.75;2085609;28;47974;-61
2022/03/20 04:16:22;;;;;;;;;5.60;5.60;;;;;10.70;38.03;101975.28;2086019;28;48109;-60
2022/03/20 04:17:23;;;;;;;;;5.33;5.33;;;;;10.72;38.28;101980.59;2086810;28;47468;-60
2022/03/20 04:18:23;;;;;;;;;7.00;6.00;;;;;10.71;38.08;101982.38;2086122;28;47992;-61
2022/03/20 04:19:24;;;;;;;;;5.33;5.33;;;;;10.72;38.04;101986.78;2078569;28;47598;-57
2022/03/20 04:20:25;;;;;;;;;6.00;5.00;;;;;10.72;38.05;101978.81;2078565;28;47237;-62
2022/03/20 04:21:25;;;;;;;;;7.00;6.00;;;;;10.72;37.96;101978.81;2086453;28;47493;-62
2022/03/20 04:22:26;;;;;;;;;10.00;7.00;;;;;10.73;38.15;101985.00;2086465;28;46603;-60
2022/03/20 04:23:45;;;;;;;;;5.00;5.00;;;;;10.72;38.08;101976.16;2099199;27;47255;-62
2022/03/20 04:24:46;;;;;;;;;6.00;6.00;;;;;10.70;38.05;101980.59;2112316;27;47624;-61
2022/03/20 04:25:46;;;;;;;;;7.25;6.00;;;;;10.68;38.22;101986.81;2103686;28;47830;-60
2022/03/20 04:26:47;;;;;;;;;5.50;5.25;;;;;10.64;38.33;101985.03;2094920;28;47537;-61
2022/03/20 04:27:47;;;;;;;;;6.67;6.67;;;;;10.61;38.31;101984.16;2103657;28;47429;-62
2022/03/20 04:28:50;;;;;;;;;6.75;6.75;;;;;10.60;38.39;101989.47;2110281;27;48133;-60
2022/03/20 04:29:52;;;;;;;;;6.25;6.25;;;;;10.58;38.44;101988.59;2112669;27;47512;-60
2022/03/20 04:30:53;;;;;;;;;5.40;5.40;;;;;10.58;38.63;101991.25;2112570;27;48385;-59
2022/03/20 04:31:54;;;;;;;;;4.75;4.50;;;;;10.58;38.39;101985.94;2112476;27;47918;-60
2022/03/20 04:32:55;;;;;;;;;9.00;8.00;;;;;10.57;38.47;101992.13;2112434;27;47664;-60
2022/03/20 04:33:56;;;;;;;;;6.80;6.80;;;;;10.56;38.55;101985.06;2112630;27;47400;-59
2022/03/20 04:34:56;;;;;;;;;7.75;7.75;;;;;10.56;38.45;101982.41;2112703;27;47928;-60
2022/03/20 04:35:57;;;;;;;;;6.00;4.00;;;;;10.56;38.64;101987.72;2113993;27;47589;-61
2022/03/20 04:36:58;;;;;;;;;7.40;7.00;;;;;10.54;38.60;101984.13;2113991;27;47603;-61
2022/03/20 04:37:58;;;;;;;;;5.25;5.00;;;;;10.53;38.47;101982.38;2114477;27;47586;-61
2022/03/20 04:39:00;;;;;;;;;6.00;6.00;;;;;10.51;38.70;101985.03;2113921;27;47567;-60
2022/03/20 04:40:01;;;;;;;;;8.25;6.00;;;;;10.50;38.56;101987.69;2114185;27;47850;-57
2022/03/20 04:41:01;;;;;;;;;7.75;6.50;;;;;10.48;38.62;101990.34;2114074;27;47820;-59
2022/03/20 04:42:04;;;;;;;;;6.25;6.25;;;;;10.48;38.86;101985.03;2105327;28;47323;-60
2022/03/20 04:43:04;;;;;;;;;7.75;5.50;;;;;10.48;38.75;101982.41;2087362;28;45962;-60
2022/03/20 04:44:12;;;;;;;;;7.00;7.00;;;;;10.47;38.81;101977.97;2087753;28;47618;-62
2022/03/20 04:45:13;;;;;;;;;5.50;5.50;;;;;10.48;39.09;101982.41;2100756;27;47909;-60
2022/03/20 04:46:14;;;;;;;;;6.20;6.20;;;;;10.48;38.86;101978.84;2113374;27;47797;-60
2022/03/20 04:59:09;;;;;;;;;6.00;6.00;;;;;10.46;39.07;101977.97;2113879;27;46754;-59
2022/03/20 05:00:10;;;;;;;;;6.67;6.67;;;;;10.47;39.05;101972.66;2113937;27;47549;-61
2022/03/20 05:01:11;;;;;;;;;6.20;6.20;;;;;10.47;38.97;101975.31;2113786;27;47224;-62
2022/03/20 05:02:12;;;;;;;;;8.75;7.00;;;;;10.48;38.97;101971.78;2095596;28;47259;-61
2022/03/20 05:03:12;;;;;;;;;6.33;6.33;;;;;10.47;39.13;101966.47;2096012;28;47455;-60
2022/03/20 05:04:16;;;;;;;;;8.67;8.67;;;;;10.48;39.04;101970.91;2114364;27;47465;-60
2022/03/20 05:05:16;;;;;;;;;7.75;7.25;;;;;10.46;39.28;101970.03;2096110;28;46006;-60